createdAt,value
2023-05-17T00:01:11.832Z,1.45
2023-05-17T00:03:39.862Z,1.63
2023-05-17T00:06:08.132Z,1.38
2023-05-17T00:08:37.509Z,1.65
2023-05-17T00:11:05.421Z,1.60
2023-05-17T00:13:33.454Z,1.90
2023-05-17T00:16:01.351Z,1.58
2023-05-17T00:18:29.703Z,1.80
2023-05-17T00:20:57.864Z,1.67
2023-05-17T00:23:26.033Z,1.65
2023-05-17T00:25:55.390Z,1.55
2023-05-17T00:28:23.358Z,1.42
2023-05-17T00:30:51.461Z,1.80
2023-05-17T00:33:19.373Z,1.95
2023-05-17T00:35:47.572Z,1.77
2023-05-17T00:38:15.538Z,1.75
2023-05-17T00:40:43.548Z,2.05
2023-05-17T00:43:12.935Z,1.67
2023-05-17T00:45:40.919Z,2.20
2023-05-17T00:48:09.073Z,1.75
2023-05-17T00:50:37.412Z,1.90
2023-05-17T00:53:05.442Z,1.90
2023-05-17T00:55:34.002Z,1.65
2023-05-17T00:58:03.928Z,1.85
2023-05-17T01:00:33.759Z,2.00
2023-05-17T01:03:02.197Z,1.95
2023-05-17T01:05:31.205Z,2.22
2023-05-17T01:07:59.625Z,2.08
2023-05-17T01:10:36.767Z,2.13
2023-05-17T01:13:10.077Z,2.03
2023-05-17T01:15:47.091Z,2.25
2023-05-17T01:18:22.948Z,1.77
2023-05-17T01:20:53.884Z,2.45
2023-05-17T01:23:32.490Z,2.30
2023-05-17T01:26:08.694Z,1.75
2023-05-17T01:28:39.469Z,2.00
2023-05-17T01:31:09.608Z,2.08
2023-05-17T01:33:37.789Z,1.80
2023-05-17T01:36:06.771Z,1.90
2023-05-17T01:38:34.797Z,2.00
2023-05-17T01:41:09.200Z,2.28
2023-05-17T01:43:47.668Z,2.10
2023-05-17T01:46:26.658Z,1.80
2023-05-17T01:49:11.921Z,2.38
2023-05-17T01:51:48.560Z,1.65
2023-05-17T01:54:21.444Z,2.30
2023-05-17T01:56:53.347Z,2.22
2023-05-17T01:59:25.346Z,2.25
2023-05-17T02:01:56.797Z,2.30
2023-05-17T02:04:24.866Z,2.30
2023-05-17T02:06:52.987Z,2.40
2023-05-17T02:09:21.053Z,2.30
2023-05-17T02:11:49.287Z,2.20
2023-05-17T02:14:17.309Z,2.58
2023-05-17T02:16:46.822Z,2.13
2023-05-17T02:19:15.176Z,2.40
2023-05-17T02:21:43.485Z,2.20
2023-05-17T02:24:11.397Z,2.35
2023-05-17T02:26:42.846Z,2.38
2023-05-17T02:29:11.354Z,2.25
2023-05-17T02:31:39.319Z,2.47
2023-05-17T02:34:08.592Z,2.72
2023-05-17T02:36:36.554Z,2.22
2023-05-17T02:39:04.686Z,2.47
2023-05-17T02:41:32.686Z,2.30
2023-05-17T02:44:01.042Z,2.60
2023-05-17T02:46:29.215Z,2.28
2023-05-17T02:48:57.205Z,2.55
2023-05-17T02:51:26.864Z,2.42
2023-05-17T02:53:54.764Z,2.63
2023-05-17T02:56:22.719Z,2.47
2023-05-17T02:58:50.687Z,2.70
2023-05-17T03:01:18.561Z,2.20
2023-05-17T03:03:46.618Z,2.17
2023-05-17T03:06:16.944Z,2.40
2023-05-17T03:08:46.444Z,2.70
2023-05-17T03:11:14.603Z,2.80
2023-05-17T03:13:42.628Z,2.63
2023-05-17T03:16:10.722Z,2.60
2023-05-17T03:18:38.867Z,2.92
2023-05-17T03:21:07.052Z,2.10
2023-05-17T03:23:35.056Z,2.45
2023-05-17T03:26:04.502Z,3.17
2023-05-17T03:28:32.576Z,2.47
2023-05-17T03:31:00.750Z,2.85
2023-05-17T03:33:28.999Z,2.50
2023-05-17T03:35:56.960Z,2.63
2023-05-17T03:38:25.017Z,3.35
2023-05-17T03:40:53.292Z,2.78
2023-05-17T03:43:22.714Z,3.08
2023-05-17T03:45:50.789Z,2.72
2023-05-17T03:48:19.125Z,3.05
2023-05-17T03:50:47.282Z,3.00
2023-05-17T03:53:15.471Z,4.60
2023-05-17T03:55:44.048Z,3.25
2023-05-17T03:58:12.241Z,3.35
2023-05-17T04:00:42.101Z,3.42
2023-05-17T04:03:10.445Z,3.00
2023-05-17T04:05:38.792Z,2.83
2023-05-17T04:08:07.205Z,3.03
2023-05-17T04:10:35.598Z,2.65
2023-05-17T04:13:03.809Z,2.65
2023-05-17T04:15:32.119Z,2.50
2023-05-17T04:18:01.763Z,2.92
2023-05-17T04:20:30.044Z,3.17
2023-05-17T04:22:58.179Z,3.30
2023-05-17T04:25:26.382Z,3.00
2023-05-17T04:27:56.021Z,3.38
2023-05-17T04:30:25.095Z,3.35
2023-05-17T04:32:53.556Z,3.13
2023-05-17T04:35:23.223Z,3.13
2023-05-17T04:40:22.433Z,2.80
2023-05-17T04:42:50.508Z,3.42
2023-05-17T04:45:18.889Z,3.15
2023-05-17T04:47:47.454Z,3.67
2023-05-17T04:50:16.033Z,2.70
2023-05-17T04:52:46.772Z,3.63
2023-05-17T04:55:15.138Z,2.78
2023-05-17T04:57:43.512Z,3.47
2023-05-17T05:00:15.154Z,3.40
2023-05-17T05:02:43.398Z,3.20
2023-05-17T05:05:13.184Z,3.53
2023-05-17T05:07:44.443Z,2.88
2023-05-17T05:10:14.693Z,3.03
2023-05-17T05:12:42.914Z,2.88
2023-05-17T05:15:15.034Z,2.97
2023-05-17T05:17:44.687Z,2.90
2023-05-17T05:20:13.322Z,2.92
2023-05-17T05:22:41.717Z,3.35
2023-05-17T05:25:14.927Z,2.75
2023-05-17T05:27:43.121Z,3.50
2023-05-17T05:30:12.655Z,2.70
2023-05-17T05:32:40.853Z,2.75
2023-05-17T05:35:09.794Z,2.60
2023-05-17T05:37:37.856Z,3.40
2023-05-17T05:40:10.190Z,2.72
2023-05-17T05:42:40.222Z,3.47
2023-05-17T05:45:09.472Z,3.15
2023-05-17T05:47:38.922Z,2.88
2023-05-17T05:50:08.450Z,3.25
2023-05-17T05:52:36.493Z,2.53
2023-05-17T05:55:04.867Z,2.92
2023-05-17T05:57:32.963Z,2.55
2023-05-17T06:00:02.588Z,2.90
2023-05-17T06:02:30.746Z,3.53
2023-05-17T06:04:58.930Z,2.53
2023-05-17T06:07:27.358Z,2.40
2023-05-17T06:09:55.519Z,2.53
2023-05-17T06:12:23.612Z,2.60
2023-05-17T06:14:51.625Z,2.67
2023-05-17T06:17:21.416Z,2.50
2023-05-17T06:19:50.332Z,2.55
2023-05-17T06:22:18.395Z,3.08
2023-05-17T06:24:46.599Z,2.45
2023-05-17T06:27:14.715Z,2.60
2023-05-17T06:30:40.661Z,2.63
2023-05-17T06:33:14.223Z,2.78
2023-05-17T06:38:22.578Z,3.17
2023-05-17T06:40:53.263Z,2.95
2023-05-17T06:43:21.306Z,2.55
2023-05-17T06:45:49.698Z,2.33
2023-05-17T06:48:19.228Z,2.42
2023-05-17T06:50:47.378Z,3.65
2023-05-17T06:53:15.622Z,2.47
2023-05-17T06:55:43.598Z,2.78
2023-05-17T06:58:11.776Z,2.70
2023-05-17T07:00:39.924Z,2.40
2023-05-17T07:03:07.933Z,3.10
2023-05-17T07:05:40.435Z,3.33
2023-05-17T07:10:36.277Z,3.33
2023-05-17T07:13:04.301Z,3.92
2023-05-17T07:15:32.376Z,3.05
2023-05-17T07:18:00.904Z,3.78
2023-05-17T07:20:28.993Z,3.78
2023-05-17T07:22:58.395Z,3.00
2023-05-17T07:25:26.437Z,2.85
2023-05-17T07:27:54.429Z,3.63
2023-05-17T07:30:22.389Z,3.20
2023-05-17T07:32:50.538Z,3.00
2023-05-17T07:35:20.957Z,3.28
2023-05-17T07:37:49.949Z,3.55
2023-05-17T07:40:19.669Z,2.58
2023-05-17T07:42:47.628Z,3.20
2023-05-17T07:45:15.756Z,2.35
2023-05-17T07:47:43.839Z,3.30
2023-05-17T07:50:12.742Z,3.20
2023-05-17T07:52:40.796Z,3.05
2023-05-17T07:55:09.899Z,2.78
2023-05-17T07:57:39.401Z,3.00
2023-05-17T08:00:12.528Z,2.97
2023-05-17T08:02:41.150Z,2.22
2023-05-17T08:05:10.099Z,2.92
2023-05-17T08:07:38.303Z,3.17
2023-05-17T08:10:07.358Z,3.45
2023-05-17T08:12:35.518Z,2.63
2023-05-17T08:15:05.482Z,3.08
2023-05-17T08:17:33.730Z,2.50
2023-05-17T08:20:03.712Z,2.97
2023-05-17T08:22:31.675Z,3.05
2023-05-17T08:24:59.699Z,2.58
2023-05-17T08:27:27.743Z,2.35
2023-05-17T08:30:06.972Z,2.95
2023-05-17T08:32:38.554Z,2.33
2023-05-17T08:35:07.542Z,2.20
2023-05-17T08:37:35.494Z,2.50
2023-05-17T08:40:03.603Z,2.72
2023-05-17T08:42:31.764Z,3.13
2023-05-17T08:45:00.342Z,2.65
2023-05-17T08:47:34.055Z,2.50
2023-05-17T08:50:05.820Z,2.63
2023-05-17T08:52:34.193Z,2.42
2023-05-17T08:55:02.594Z,2.40
2023-05-17T08:57:32.539Z,2.00
2023-05-17T09:00:01.385Z,2.55
2023-05-17T09:02:31.689Z,2.58
2023-05-17T09:05:00.112Z,2.40
2023-05-17T09:07:29.562Z,1.95
2023-05-17T09:09:58.375Z,2.00
2023-05-17T09:12:26.390Z,1.92
2023-05-17T09:14:54.344Z,2.63
2023-05-17T09:17:23.096Z,2.90
2023-05-17T09:19:51.896Z,1.80
2023-05-17T09:22:20.620Z,2.05
2023-05-17T09:24:51.245Z,2.15
2023-05-17T09:27:19.753Z,2.42
2023-05-17T09:29:48.388Z,2.30
2023-05-17T09:32:17.941Z,2.50
2023-05-17T09:34:48.360Z,2.00
2023-05-17T09:37:17.620Z,2.20
2023-05-17T09:39:47.421Z,2.25
2023-05-17T09:42:17.736Z,2.15
2023-05-17T09:44:54.881Z,1.73
2023-05-17T09:47:24.859Z,1.98
2023-05-17T09:49:53.227Z,2.60
2023-05-17T09:52:22.337Z,2.10
2023-05-17T09:54:54.728Z,1.83
2023-05-17T09:57:25.839Z,2.08
2023-05-17T09:59:56.728Z,2.28
2023-05-17T10:02:28.561Z,2.80
2023-05-17T10:04:58.278Z,2.67
2023-05-17T10:07:27.860Z,2.25
2023-05-17T10:09:57.452Z,2.58
2023-05-17T10:12:29.975Z,2.22
2023-05-17T10:17:30.531Z,1.98
2023-05-17T10:19:59.223Z,2.25
2023-05-17T10:22:29.199Z,2.17
2023-05-17T10:24:58.520Z,2.53
2023-05-17T10:27:29.549Z,2.20
2023-05-17T10:29:59.171Z,2.35
2023-05-17T10:32:29.950Z,2.30
2023-05-17T10:35:10.140Z,2.63
2023-05-17T10:37:40.065Z,2.50
2023-05-17T10:40:13.000Z,3.22
2023-05-17T10:42:43.670Z,2.15
2023-05-17T10:45:13.781Z,2.10
2023-05-17T10:47:43.005Z,2.13
2023-05-17T10:50:13.307Z,2.17
2023-05-17T10:52:48.201Z,3.05
2023-05-17T10:55:20.792Z,2.17
2023-05-17T11:00:41.249Z,2.40
2023-05-17T11:03:13.947Z,1.90
2023-05-17T11:05:45.516Z,2.10
2023-05-17T11:08:15.782Z,1.77
2023-05-17T11:11:11.382Z,2.30
2023-05-17T11:13:52.089Z,2.25
2023-05-17T11:16:23.684Z,1.98
2023-05-17T11:18:53.551Z,2.23
2023-05-17T11:21:22.888Z,2.70
2023-05-17T11:24:01.283Z,2.33
2023-05-17T11:26:44.613Z,2.70
2023-05-17T11:29:14.610Z,2.20
2023-05-17T11:31:45.835Z,1.85
2023-05-17T11:34:13.945Z,2.33
2023-05-17T11:36:52.237Z,2.35
2023-05-17T11:39:24.011Z,2.08
2023-05-17T11:41:54.008Z,2.05
2023-05-17T11:44:30.686Z,2.33
2023-05-17T11:47:03.915Z,2.17
2023-05-17T11:49:36.396Z,2.35
2023-05-17T11:52:06.201Z,2.22
2023-05-17T11:54:34.646Z,2.63
2023-05-17T11:57:03.616Z,1.80
2023-05-17T11:59:39.788Z,2.33
2023-05-17T12:02:08.225Z,2.45
2023-05-17T12:04:38.625Z,2.55
2023-05-17T12:07:09.367Z,2.05
2023-05-17T12:09:38.039Z,1.95
2023-05-17T12:12:08.776Z,2.17
2023-05-17T12:14:38.808Z,2.10
2023-05-17T12:17:09.899Z,2.03
2023-05-17T12:19:38.426Z,2.10
2023-05-17T12:22:12.499Z,1.88
2023-05-17T12:24:42.229Z,2.03
2023-05-17T12:27:11.288Z,2.42
2023-05-17T12:29:41.277Z,2.13
2023-05-17T12:32:11.288Z,2.03
2023-05-17T12:34:40.806Z,1.92
2023-05-17T12:37:10.880Z,2.20
2023-05-17T12:39:39.400Z,2.55
2023-05-17T12:42:08.575Z,1.88
2023-05-17T12:44:37.171Z,2.22
2023-05-17T12:47:07.011Z,2.85
2023-05-17T12:49:40.136Z,1.90
2023-05-17T12:52:08.814Z,1.63
2023-05-17T12:54:37.159Z,2.30
2023-05-17T12:57:13.848Z,2.55
2023-05-17T12:59:49.159Z,2.38
2023-05-17T13:02:20.352Z,2.15
2023-05-17T13:04:48.646Z,2.07
2023-05-17T13:07:23.973Z,2.10
2023-05-17T13:09:53.457Z,1.95
2023-05-17T13:12:23.229Z,1.50
2023-05-17T13:14:53.376Z,2.03
2023-05-17T13:17:27.418Z,1.65
2023-05-17T13:19:57.408Z,2.97
2023-05-17T13:22:26.335Z,2.10
2023-05-17T13:24:55.042Z,2.10
2023-05-17T13:27:23.128Z,4.75
2023-05-17T13:29:51.294Z,2.70
2023-05-17T13:32:26.175Z,2.80
2023-05-17T13:34:54.451Z,2.38
2023-05-17T13:37:22.625Z,2.22
2023-05-17T13:39:51.025Z,2.00
2023-05-17T13:42:19.145Z,2.10
2023-05-17T13:44:47.163Z,2.33
2023-05-17T13:47:15.553Z,2.17
2023-05-17T13:49:44.990Z,2.33
2023-05-17T13:52:13.394Z,2.20
2023-05-17T13:54:41.482Z,2.25
2023-05-17T13:57:09.666Z,2.42
2023-05-17T13:59:37.762Z,2.17
2023-05-17T14:02:05.978Z,1.90
2023-05-17T14:04:34.974Z,2.05
2023-05-17T14:07:05.183Z,2.17
2023-05-17T14:09:34.497Z,2.17
2023-05-17T14:12:03.005Z,1.83
2023-05-17T14:14:31.451Z,2.30
2023-05-17T14:17:01.456Z,1.75
2023-05-17T14:19:29.547Z,2.33
2023-05-17T14:21:57.794Z,2.47
2023-05-17T14:24:27.123Z,2.10
2023-05-17T14:26:55.252Z,1.98
2023-05-17T14:29:47.920Z,1.92
2023-05-17T14:32:38.544Z,2.40
2023-05-17T14:35:08.280Z,2.25
2023-05-17T14:37:36.492Z,2.05
2023-05-17T14:40:07.184Z,2.65
2023-05-17T14:42:35.249Z,2.45
2023-05-17T14:45:03.170Z,2.00
2023-05-17T14:47:31.193Z,2.00
2023-05-17T14:49:59.182Z,2.97
2023-05-17T14:52:27.215Z,2.60
2023-05-17T14:54:55.201Z,2.08
2023-05-17T14:57:24.639Z,2.80
2023-05-17T14:59:52.700Z,2.92
2023-05-17T15:02:20.799Z,2.53
2023-05-17T15:04:51.480Z,2.55
2023-05-17T15:07:19.964Z,2.05
2023-05-17T15:09:48.389Z,2.30
2023-05-17T15:12:19.009Z,2.20
2023-05-17T15:14:51.298Z,1.95
2023-05-17T15:17:19.702Z,1.92
2023-05-17T15:19:47.917Z,2.50
2023-05-17T15:22:16.647Z,1.98
2023-05-17T15:24:45.970Z,1.80
2023-05-17T15:27:16.418Z,2.10
2023-05-17T15:29:44.993Z,2.38
2023-05-17T15:32:14.639Z,2.35
2023-05-17T15:34:42.659Z,2.45
2023-05-17T15:37:10.689Z,2.13
2023-05-17T15:39:38.751Z,1.75
2023-05-17T15:42:07.150Z,1.75
2023-05-17T15:44:35.239Z,2.28
2023-05-17T15:47:03.666Z,1.75
2023-05-17T15:49:33.587Z,2.63
2023-05-17T15:52:02.093Z,2.08
2023-05-17T15:54:30.375Z,2.55
2023-05-17T15:56:58.520Z,2.00
2023-05-17T15:59:26.560Z,1.92
2023-05-17T16:01:54.686Z,1.60
2023-05-17T16:04:22.818Z,1.92
2023-05-17T16:06:52.630Z,2.13
2023-05-17T16:09:20.659Z,1.70
2023-05-17T16:11:48.760Z,2.05
2023-05-17T16:14:17.626Z,1.75
2023-05-17T16:16:45.812Z,1.75
2023-05-17T16:19:14.040Z,1.92
2023-05-17T16:21:42.255Z,2.42
2023-05-17T16:24:11.888Z,1.75
2023-05-17T16:26:39.964Z,1.90
2023-05-17T16:29:07.929Z,1.70
2023-05-17T16:31:36.273Z,1.55
2023-05-17T16:34:04.456Z,1.77
2023-05-17T16:36:33.881Z,1.67
2023-05-17T16:39:01.804Z,1.90
2023-05-17T16:41:33.528Z,2.00
2023-05-17T16:44:01.479Z,2.00
2023-05-17T16:46:29.386Z,1.80
2023-05-17T16:48:57.279Z,1.60
2023-05-17T16:51:25.289Z,1.70
2023-05-17T16:53:53.240Z,1.80
2023-05-17T16:56:22.318Z,1.83
2023-05-17T16:58:52.226Z,1.52
2023-05-17T17:01:20.265Z,1.63
2023-05-17T17:03:48.365Z,1.67
2023-05-17T17:06:16.487Z,1.70
2023-05-17T17:08:44.413Z,1.83
2023-05-17T17:11:12.310Z,1.48
2023-05-17T17:13:41.293Z,3.40
2023-05-17T17:16:10.912Z,1.50
2023-05-17T17:18:38.878Z,1.58
2023-05-17T17:21:08.012Z,1.83
2023-05-17T17:23:36.590Z,1.30
2023-05-17T17:26:04.626Z,1.90
2023-05-17T17:28:32.561Z,1.40
2023-05-17T17:31:00.460Z,2.05
2023-05-17T17:33:29.890Z,1.60
2023-05-17T17:35:57.905Z,1.73
2023-05-17T17:38:26.041Z,1.60
2023-05-17T17:40:53.933Z,2.08
2023-05-17T17:43:22.330Z,1.90
2023-05-17T17:45:50.252Z,2.05
2023-05-17T17:48:18.230Z,1.55
2023-05-17T17:50:47.564Z,2.08
2023-05-17T17:53:15.836Z,2.80
2023-05-17T17:55:43.984Z,1.73
2023-05-17T17:58:11.930Z,1.45
2023-05-17T18:00:39.903Z,2.00
2023-05-17T18:03:08.161Z,1.50
2023-05-17T18:05:36.274Z,1.75
2023-05-17T18:08:06.157Z,1.83
2023-05-17T18:10:34.249Z,1.90
2023-05-17T18:13:02.264Z,1.85
2023-05-17T18:15:30.344Z,1.63
2023-05-17T18:17:58.645Z,1.75
2023-05-17T18:20:27.345Z,1.52
2023-05-17T18:22:55.597Z,1.80
2023-05-17T18:25:25.251Z,2.28
2023-05-17T18:27:53.306Z,2.47
2023-05-17T18:30:21.407Z,1.83
2023-05-17T18:32:49.440Z,1.80
2023-05-17T18:35:17.496Z,2.10
2023-05-17T18:37:45.549Z,1.55
2023-05-17T18:40:16.114Z,1.60
2023-05-17T18:42:45.559Z,1.98
2023-05-17T18:45:13.583Z,1.70
2023-05-17T18:47:41.570Z,1.60
2023-05-17T18:50:10.253Z,1.75
2023-05-17T18:52:38.307Z,1.70
2023-05-17T18:55:07.141Z,2.05
2023-05-17T18:57:35.256Z,1.98
2023-05-17T19:00:05.276Z,1.50
2023-05-17T19:02:33.383Z,1.63
2023-05-17T19:05:01.486Z,2.00
2023-05-17T19:07:29.571Z,1.92
2023-05-17T19:09:57.608Z,1.98
2023-05-17T19:12:25.719Z,1.95
2023-05-17T19:14:53.829Z,1.88
2023-05-17T19:17:23.567Z,1.95
2023-05-17T19:19:51.659Z,2.10
2023-05-17T19:22:19.779Z,1.70
2023-05-17T19:24:47.775Z,2.78
2023-05-17T19:27:19.388Z,2.22
2023-05-17T19:29:47.444Z,1.60
2023-05-17T19:32:15.711Z,2.10
2023-05-17T19:34:45.175Z,1.70
2023-05-17T19:37:13.160Z,1.70
2023-05-17T19:39:41.190Z,2.13
2023-05-17T19:42:09.291Z,2.25
2023-05-17T19:44:37.277Z,2.30
2023-05-17T19:47:05.546Z,2.83
2023-05-17T19:49:33.472Z,2.33
2023-05-17T19:52:02.888Z,2.58
2023-05-17T19:54:31.295Z,2.20
2023-05-17T19:56:59.742Z,2.13
2023-05-17T19:59:27.741Z,1.55
2023-05-17T20:01:56.031Z,1.90
2023-05-17T20:04:24.071Z,2.03
2023-05-17T20:06:52.305Z,2.20
2023-05-17T20:09:21.674Z,2.60
2023-05-17T20:11:49.667Z,1.90
2023-05-17T20:14:17.652Z,2.60
2023-05-17T20:16:45.824Z,2.40
2023-05-17T20:19:14.033Z,2.35
2023-05-17T20:21:42.184Z,2.72
2023-05-17T20:24:10.231Z,2.90
2023-05-17T20:26:39.802Z,3.17
2023-05-17T20:29:09.285Z,3.15
2023-05-17T20:31:37.823Z,3.40
2023-05-17T20:34:06.400Z,2.85
2023-05-17T20:36:34.444Z,2.20
2023-05-17T20:39:02.376Z,1.83
2023-05-17T20:41:30.384Z,2.75
2023-05-17T20:43:59.669Z,2.83
2023-05-17T20:46:29.930Z,1.95
2023-05-17T20:48:58.099Z,2.05
2023-05-17T20:51:27.065Z,1.70
2023-05-17T20:53:55.370Z,1.55
2023-05-17T20:56:23.335Z,2.17
2023-05-17T20:58:51.328Z,2.17
2023-05-17T21:01:20.785Z,1.90
2023-05-17T21:03:51.172Z,2.00
2023-05-17T21:06:19.373Z,2.17
2023-05-17T21:08:47.542Z,2.15
2023-05-17T21:11:20.910Z,2.58
2023-05-17T21:13:49.001Z,1.90
2023-05-17T21:16:17.125Z,2.05
2023-05-17T21:18:46.594Z,2.47
2023-05-17T21:21:14.683Z,1.80
2023-05-17T21:23:42.684Z,1.63
2023-05-17T21:26:11.108Z,1.63
2023-05-17T21:28:39.114Z,2.40
2023-05-17T21:31:07.286Z,2.05
2023-05-17T21:33:35.524Z,1.83
2023-05-17T21:36:05.214Z,2.00
2023-05-17T21:38:33.213Z,2.00
2023-05-17T21:41:01.136Z,1.73
2023-05-17T21:43:29.097Z,1.98
2023-05-17T21:45:57.033Z,1.80
2023-05-17T21:48:25.361Z,1.83
2023-05-17T21:50:53.231Z,1.83
2023-05-17T21:53:22.661Z,1.63
2023-05-17T21:56:01.434Z,1.90
2023-05-17T21:58:31.635Z,1.80
2023-05-17T22:00:59.709Z,1.75
2023-05-17T22:03:27.798Z,2.15
2023-05-17T22:05:55.808Z,2.33
2023-05-17T22:08:25.172Z,1.92
2023-05-17T22:10:54.340Z,2.47
2023-05-17T22:13:26.075Z,1.90
2023-05-17T22:15:57.812Z,2.00
2023-05-17T22:18:26.747Z,1.95
2023-05-17T22:20:59.194Z,2.47
2023-05-17T22:23:28.862Z,1.70
2023-05-17T22:26:00.224Z,1.63
2023-05-17T22:28:28.624Z,1.20
2023-05-17T22:30:56.868Z,2.03
2023-05-17T22:33:25.036Z,1.77
2023-05-17T22:35:54.253Z,2.20
2023-05-17T22:38:23.307Z,1.63
2023-05-17T22:40:52.886Z,1.40
2023-05-17T22:43:22.264Z,2.50
2023-05-17T22:45:51.131Z,2.03
2023-05-17T22:48:20.962Z,1.58
2023-05-17T22:50:49.113Z,3.67
2023-05-17T22:53:18.658Z,1.90
2023-05-17T22:55:48.893Z,2.03
2023-05-17T22:58:18.715Z,1.70
2023-05-17T23:00:46.974Z,2.15
2023-05-17T23:03:15.257Z,2.35
2023-05-17T23:05:45.468Z,2.33
2023-05-17T23:08:15.446Z,2.50
2023-05-17T23:10:46.143Z,2.28
2023-05-17T23:13:14.556Z,2.40
2023-05-17T23:15:46.841Z,2.95
2023-05-17T23:18:16.044Z,2.60
2023-05-17T23:20:44.127Z,3.10
2023-05-17T23:23:13.297Z,3.75
2023-05-17T23:25:41.311Z,3.15
2023-05-17T23:28:09.712Z,3.40
2023-05-17T23:30:38.517Z,2.65
2023-05-17T23:33:08.275Z,3.08
2023-05-17T23:35:36.546Z,2.70
2023-05-17T23:38:07.145Z,2.58
2023-05-17T23:40:37.085Z,2.83
2023-05-17T23:43:05.850Z,2.35
2023-05-17T23:45:34.303Z,2.67
2023-05-17T23:48:02.436Z,2.03
2023-05-17T23:50:31.995Z,2.83
2023-05-17T23:53:03.377Z,2.92
2023-05-17T23:55:31.712Z,2.95
2023-05-17T23:57:59.788Z,2.55
